Time;durP1;ratioP1;P1;durP2;ratioP2;P2;SDS_P1;SDS_P2;PMS_P1;PMS_P2;Temp;Humidity;BMP_temperature;BMP_pressure;BME280_temperature;BME280_humidity;BME280_pressure;Samples;Min_cycle;Max_cycle;Signal;HPM_P1;HPM_P2
2023/07/05 00:00:30;;;;;;;4.93;2.10;;;;;;;21.03;60.69;95333.03;5075301;28;20192;-85
2023/07/05 00:02:57;;;;;;;1.92;1.60;;;;;;;21.00;60.95;95340.59;5091354;28;20203;-85
2023/07/05 00:05:24;;;;;;;2.03;1.83;;;;;;;20.97;61.29;95335.88;5091322;28;20635;-85
2023/07/05 00:07:50;;;;;;;1.67;1.48;;;;;;;20.98;61.24;95332.97;5091378;28;20227;-85
2023/07/05 00:10:17;;;;;;;2.17;1.73;;;;;;;20.97;61.45;95341.84;5091147;28;20200;-84
2023/07/05 00:12:45;;;;;;;1.65;1.55;;;;;;;20.91;61.25;95335.03;5090835;28;20200;-84
2023/07/05 00:15:12;;;;;;;1.90;1.80;;;;;;;20.87;61.48;95330.50;5090344;28;20228;-85
2023/07/05 00:17:38;;;;;;;1.55;1.45;;;;;;;20.82;61.63;95335.69;5083711;28;20204;-85
2023/07/05 00:20:07;;;;;;;2.10;1.45;;;;;;;20.75;62.22;95328.06;5070538;28;20810;-85
2023/07/05 00:22:34;;;;;;;2.75;1.35;;;;;;;20.78;61.72;95329.41;5052157;28;20197;-85
2023/07/05 00:25:02;;;;;;;1.70;1.60;;;;;;;20.75;62.22;95322.81;5051501;28;20226;-85
2023/07/05 00:27:29;;;;;;;1.52;1.42;;;;;;;20.84;61.67;95331.78;5050601;28;20197;-84
2023/07/05 00:29:56;;;;;;;2.70;1.73;;;;;;;20.87;61.87;95333.13;5050582;28;20266;-83
2023/07/05 00:32:23;;;;;;;1.88;1.70;;;;;;;20.82;61.98;95336.47;5049367;28;20205;-84
2023/07/05 00:34:49;;;;;;;2.30;1.60;;;;;;;20.76;62.11;95331.47;5050325;28;20691;-85
2023/07/05 00:37:16;;;;;;;1.80;1.70;;;;;;;20.79;62.09;95321.25;5050368;28;20208;-85
2023/07/05 00:39:42;;;;;;;2.13;1.63;;;;;;;20.70;62.33;95314.91;5050114;28;20204;-84
2023/07/05 00:42:09;;;;;;;1.90;1.50;;;;;;;20.58;62.76;95311.66;5050346;28;20204;-85
2023/07/05 00:44:35;;;;;;;1.60;1.50;;;;;;;20.61;62.68;95304.09;5050184;28;20602;-85
2023/07/05 00:47:09;;;;;;;2.85;1.60;;;;;;;20.65;62.77;95307.00;5054155;28;20197;-85
2023/07/05 00:49:37;;;;;;;1.95;1.58;;;;;;;20.72;62.31;95312.84;5064040;28;20210;-84
2023/07/05 00:52:07;;;;;;;1.50;1.40;;;;;;;20.65;62.66;95314.84;5063117;28;20292;-84
2023/07/05 00:54:39;;;;;;;1.50;1.40;;;;;;;20.63;62.80;95315.09;5073376;28;20947;-84
2023/07/05 00:57:11;;;;;;;4.47;1.80;;;;;;;20.64;62.82;95308.81;5080720;28;20196;-85
2023/07/05 00:59:43;;;;;;;1.40;1.27;;;;;;;20.62;63.21;95315.34;5094239;28;20208;-84
2023/07/05 01:02:11;;;;;;;1.60;1.50;;;;;;;20.65;62.93;95310.41;5093972;28;20223;-85
2023/07/05 01:04:38;;;;;;;1.85;1.40;;;;;;;20.59;63.11;95310.63;5093429;28;20581;-85
2023/07/05 01:07:05;;;;;;;2.40;1.42;;;;;;;20.56;63.57;95314.50;5093812;28;20200;-84
2023/07/05 01:09:32;;;;;;;1.60;1.50;;;;;;;20.58;63.38;95320.28;5093553;28;20199;-85
2023/07/05 01:12:11;;;;;;;2.05;1.85;;;;;;;20.63;63.44;95319.53;5093176;28;20200;-84
2023/07/05 01:14:45;;;;;;;1.60;1.50;;;;;;;20.59;63.66;95328.94;5093060;28;20708;-84
2023/07/05 01:17:19;;;;;;;2.00;1.70;;;;;;;20.53;64.14;95337.75;5090068;28;20201;-85
2023/07/05 01:20:13;;;;;;;1.63;1.52;;;;;;;20.44;65.18;95347.84;5073028;28;20215;-85
2023/07/05 01:23:06;;;;;;;1.70;1.60;;;;;;;20.52;64.70;95401.56;5052491;28;20205;-83
2023/07/05 01:26:05;;;;;;;1.80;1.48;;;;;;;20.41;65.27;95397.22;5050736;28;20218;-85
2023/07/05 01:28:46;;;;;;;1.65;1.55;;;;;;;20.27;65.73;95376.63;5052613;28;20205;-84
2023/07/05 01:31:49;;;;;;;2.13;1.52;;;;;;;20.31;65.39;95371.72;5051388;28;20205;-84
2023/07/05 01:34:28;;;;;;;2.22;1.42;;;;;;;20.42;64.73;95381.28;5052695;28;20225;-84
2023/07/05 01:36:54;;;;;;;2.45;1.77;;;;;;;20.33;65.69;95367.81;5052826;28;20201;-85
2023/07/05 01:39:21;;;;;;;1.83;1.45;;;;;;;20.46;64.89;95379.78;5083543;28;20204;-83
2023/07/05 01:45:55;;;;;;;2.28;1.60;;;;;;;20.54;64.83;95378.56;5050302;28;20212;-85
2023/07/05 01:51:52;;;;;;;3.05;1.83;;;;;;;20.53;65.78;95375.16;5073546;28;20199;-84
2023/07/05 01:54:25;;;;;;;4.20;1.50;;;;;;;20.52;65.38;95370.16;5041962;28;20280;-85
2023/07/05 01:57:02;;;;;;;1.80;1.63;;;;;;;20.50;65.34;95354.72;5032215;28;20273;-85
2023/07/05 01:59:32;;;;;;;3.42;1.65;;;;;;;20.51;65.24;95347.66;5032158;28;20202;-85
2023/07/05 02:01:59;;;;;;;1.98;1.50;;;;;;;20.50;65.22;95351.31;5031773;28;20222;-81
2023/07/05 02:04:28;;;;;;;1.73;1.63;;;;;;;20.50;65.26;95341.63;5031747;28;20697;-83
2023/07/05 02:06:55;;;;;;;1.98;1.85;;;;;;;20.45;65.96;95333.72;5031188;28;20718;-81
2023/07/05 02:09:22;;;;;;;2.30;1.63;;;;;;;20.28;66.63;95333.75;5031686;28;20775;-86
2023/07/05 02:11:48;;;;;;;6.07;1.90;;;;;;;20.24;66.50;95335.28;5032000;28;20284;-83
2023/07/05 02:14:15;;;;;;;1.90;1.70;;;;;;;20.21;67.26;95324.50;5031619;28;20202;-83
2023/07/05 02:16:41;;;;;;;2.35;1.95;;;;;;;20.25;67.15;95317.75;5032717;28;20623;-84
2023/07/05 02:19:07;;;;;;;2.20;2.00;;;;;;;20.18;67.48;95315.34;5031415;28;20202;-84
2023/07/05 02:21:35;;;;;;;1.65;1.40;;;;;;;20.14;67.41;95311.63;5041928;28;20205;-81
2023/07/05 02:24:03;;;;;;;1.95;1.50;;;;;;;20.12;67.45;95313.69;5051482;28;20198;-83
2023/07/05 02:26:29;;;;;;;2.72;1.60;;;;;;;20.16;67.12;95309.56;5046796;28;20609;-83
2023/07/05 02:28:56;;;;;;;2.20;1.77;;;;;;;20.13;67.89;95307.44;5031276;28;20618;-82
2023/07/05 02:31:22;;;;;;;1.92;1.70;;;;;;;20.23;67.11;95299.69;5030443;28;20616;-83
2023/07/05 02:33:49;;;;;;;4.15;1.85;;;;;;;20.28;67.25;95299.78;5030924;28;20249;-82
2023/07/05 02:36:15;;;;;;;2.80;2.00;;;;;;;20.30;66.87;95294.31;5030655;28;20217;-85
2023/07/05 02:38:42;;;;;;;1.90;1.80;;;;;;;20.32;67.00;95294.84;5031547;28;20213;-85
2023/07/05 02:41:10;;;;;;;3.13;1.98;;;;;;;20.27;67.15;95292.97;5031278;28;20284;-85
2023/07/05 02:43:36;;;;;;;2.05;1.50;;;;;;;20.20;67.62;95287.16;5039410;28;20222;-84
2023/07/05 02:46:05;;;;;;;1.95;1.83;;;;;;;20.21;67.30;95296.53;5047199;28;20201;-85
2023/07/05 02:48:31;;;;;;;2.65;2.00;;;;;;;20.19;67.36;95295.22;5034300;28;20206;-85
2023/07/05 02:50:58;;;;;;;2.00;1.90;;;;;;;20.16;67.84;95301.72;5030985;28;20205;-84
2023/07/05 02:53:24;;;;;;;1.70;1.60;;;;;;;20.23;67.59;95297.09;5031291;28;20230;-84
2023/07/05 02:55:51;;;;;;;2.10;1.90;;;;;;;20.29;67.49;95295.34;5031339;28;20245;-84
2023/07/05 02:58:18;;;;;;;1.90;1.70;;;;;;;20.35;66.83;95296.97;5031376;28;20202;-86
2023/07/05 03:00:45;;;;;;;1.85;1.60;;;;;;;20.43;66.38;95293.16;5031073;28;20209;-84
2023/07/05 03:03:12;;;;;;;1.90;1.70;;;;;;;20.40;66.52;95288.44;5030999;28;20230;-84
2023/07/05 03:05:38;;;;;;;1.63;1.52;;;;;;;20.38;66.92;95296.53;5031228;28;20206;-84
2023/07/05 03:08:05;;;;;;;1.70;1.60;;;;;;;20.34;66.85;95298.00;5030864;28;20206;-84
2023/07/05 03:10:31;;;;;;;2.45;1.95;;;;;;;20.27;66.80;95298.19;5030540;28;20198;-85
2023/07/05 03:12:58;;;;;;;2.28;1.60;;;;;;;20.24;66.91;95293.44;5030324;28;20720;-83
2023/07/05 03:15:25;;;;;;;3.33;1.85;;;;;;;20.17;67.79;95298.09;5029646;28;20222;-85
2023/07/05 03:17:52;;;;;;;1.70;1.60;;;;;;;20.13;67.69;95302.22;5030307;28;20624;-84
2023/07/05 03:20:19;;;;;;;2.53;1.95;;;;;;;20.15;67.35;95296.75;5030655;28;20206;-83
2023/07/05 03:22:46;;;;;;;2.88;1.70;;;;;;;20.11;67.66;95293.03;5050048;28;20783;-81
2023/07/05 03:25:12;;;;;;;2.00;1.80;;;;;;;20.06;67.94;95290.34;5050594;28;20197;-83
2023/07/05 03:27:38;;;;;;;1.98;1.83;;;;;;;20.04;68.26;95292.41;5036763;28;20206;-85
2023/07/05 03:30:06;;;;;;;2.58;1.70;;;;;;;20.02;68.26;95287.41;5030706;28;20198;-82
2023/07/05 03:32:34;;;;;;;2.10;1.60;;;;;;;20.08;68.24;95296.13;5029479;28;20253;-85
2023/07/05 03:35:00;;;;;;;2.70;1.75;;;;;;;20.07;68.01;95290.09;5030495;28;20229;-82
2023/07/05 03:37:28;;;;;;;3.00;1.75;;;;;;;19.99;68.54;95282.69;5030120;28;20271;-83
2023/07/05 03:39:55;;;;;;;2.88;2.00;;;;;;;20.05;68.00;95289.53;5037910;28;20284;-82
2023/07/05 03:42:21;;;;;;;2.00;1.80;;;;;;;20.11;67.73;95291.19;5048402;28;20279;-85
2023/07/05 03:44:47;;;;;;;1.83;1.73;;;;;;;19.92;68.89;95285.47;5051218;28;20201;-83
2023/07/05 03:47:14;;;;;;;2.22;1.98;;;;;;;20.00;68.03;95287.69;5044736;28;20287;-83
2023/07/05 03:49:42;;;;;;;3.25;1.90;;;;;;;20.08;67.79;95290.88;5031168;28;20225;-83
2023/07/05 03:52:08;;;;;;;2.17;1.73;;;;;;;20.08;67.54;95290.88;5030239;28;20296;-81
2023/07/05 03:54:34;;;;;;;2.95;1.80;;;;;;;20.08;67.44;95290.88;5031011;28;20613;-84
2023/07/05 03:57:01;;;;;;;2.25;2.05;;;;;;;20.05;67.82;95292.16;5030889;28;20225;-84
2023/07/05 03:59:27;;;;;;;1.90;1.80;;;;;;;20.07;67.50;95289.31;5030613;28;20603;-84
2023/07/05 04:01:55;;;;;;;1.80;1.70;;;;;;;19.99;67.73;95283.50;5030777;28;20280;-85
2023/07/05 04:04:21;;;;;;;1.60;1.50;;;;;;;19.98;67.34;95291.56;5031288;28;20209;-84
2023/07/05 04:06:49;;;;;;;2.47;1.90;;;;;;;19.95;67.59;95284.22;5031128;28;20207;-84
2023/07/05 04:09:15;;;;;;;2.03;1.70;;;;;;;19.96;67.15;95286.59;5030896;28;20198;-85
2023/07/05 04:11:42;;;;;;;1.95;1.60;;;;;;;20.01;66.78;95286.63;5031117;28;20674;-84
2023/07/05 04:14:08;;;;;;;2.17;1.85;;;;;;;20.05;66.67;95293.97;5030353;28;20210;-84
2023/07/05 04:16:34;;;;;;;1.70;1.60;;;;;;;20.14;65.98;95295.16;5030911;28;20229;-84
2023/07/05 04:19:01;;;;;;;2.08;1.88;;;;;;;20.16;66.15;95290.47;5030756;28;20194;-84
2023/07/05 04:21:28;;;;;;;1.70;1.60;;;;;;;20.27;65.87;95292.16;5030908;28;20251;-85
2023/07/05 04:23:56;;;;;;;3.78;1.77;;;;;;;20.37;65.62;95286.31;5030765;28;20293;-84
2023/07/05 04:26:25;;;;;;;2.22;1.70;;;;;;;20.38;65.61;95288.69;5036661;28;20189;-84
2023/07/05 04:28:52;;;;;;;3.83;1.77;;;;;;;20.34;65.29;95284.94;5053706;28;20201;-84
2023/07/05 04:31:23;;;;;;;2.42;1.60;;;;;;;20.42;65.10;95288.97;5053819;28;20205;-84
2023/07/05 04:33:50;;;;;;;3.55;1.90;;;;;;;20.49;64.78;95290.34;5053858;28;20251;-84
2023/07/05 04:36:17;;;;;;;3.38;1.90;;;;;;;20.51;64.43;95284.88;5041200;28;20222;-83
2023/07/05 04:38:43;;;;;;;1.95;1.75;;;;;;;20.57;64.23;95291.75;5044378;28;20198;-84
2023/07/05 04:41:11;;;;;;;5.18;2.67;;;;;;;20.58;64.18;95291.53;5034452;28;20202;-84
2023/07/05 04:43:37;;;;;;;2.50;2.00;;;;;;;20.56;64.36;95298.03;5033628;28;20233;-84
2023/07/05 04:46:04;;;;;;;6.68;2.83;;;;;;;20.60;64.23;95293.84;5033775;28;20194;-84
2023/07/05 04:48:31;;;;;;;1.77;1.63;;;;;;;20.70;63.48;95296.59;5039511;28;20233;-83
2023/07/05 04:50:58;;;;;;;2.25;1.90;;;;;;;20.73;63.38;95292.69;5034090;28;20230;-83
2023/07/05 04:53:26;;;;;;;3.75;1.73;;;;;;;20.75;62.50;95304.50;5031435;28;20249;-84
2023/07/05 04:55:55;;;;;;;2.03;1.85;;;;;;;20.86;62.38;95303.56;5032269;28;20214;-84
2023/07/05 04:58:23;;;;;;;1.90;1.80;;;;;;;20.94;61.59;95305.75;5033244;28;20205;-85
2023/07/05 05:00:50;;;;;;;2.30;1.60;;;;;;;20.97;61.33;95313.06;5032771;28;20211;-85
2023/07/05 05:03:22;;;;;;;2.22;1.55;;;;;;;21.07;60.85;95316.84;5032998;28;20776;-85
2023/07/05 05:05:51;;;;;;;1.75;1.60;;;;;;;21.19;60.56;95314.84;5033062;28;20206;-85
2023/07/05 05:08:19;;;;;;;1.50;1.40;;;;;;;21.20;60.62;95319.84;5033149;28;20240;-84
2023/07/05 05:10:45;;;;;;;2.03;1.83;;;;;;;21.23;60.06;95334.28;5033259;28;20670;-85
2023/07/05 05:13:12;;;;;;;2.13;1.92;;;;;;;21.25;59.68;95338.22;5033378;28;20272;-84
2023/07/05 05:15:40;;;;;;;4.47;1.90;;;;;;;21.35;59.62;95348.81;5033042;28;20233;-84
2023/07/05 05:18:08;;;;;;;4.18;1.50;;;;;;;21.45;59.93;95355.94;5033184;28;20580;-84
2023/07/05 05:20:35;;;;;;;4.47;2.20;;;;;;;21.49;59.64;95371.97;5035574;28;20288;-85
2023/07/05 05:23:01;;;;;;;2.35;1.60;;;;;;;21.42;59.74;95435.03;5052716;28;20276;-84
2023/07/05 05:25:28;;;;;;;3.55;1.75;;;;;;;21.24;61.08;95425.69;5053057;28;20622;-84
2023/07/05 05:27:54;;;;;;;3.33;1.90;;;;;;;21.10;62.73;95445.41;5036047;28;20260;-83
2023/07/05 05:30:21;;;;;;;4.20;1.90;;;;;;;21.02;63.31;95440.59;5033382;28;20616;-85
2023/07/05 05:32:49;;;;;;;4.85;1.90;;;;;;;20.96;63.41;95446.84;5043781;28;20233;-85
2023/07/05 05:35:16;;;;;;;2.05;1.83;;;;;;;20.84;63.78;95451.38;5035827;28;20714;-85
2023/07/05 05:37:43;;;;;;;3.58;3.03;;;;;;;20.74;64.49;95456.50;5031413;28;20663;-85
2023/07/05 05:40:11;;;;;;;10.63;8.15;;;;;;;20.70;64.22;95461.44;5032102;28;20267;-85
2023/07/05 05:42:38;;;;;;;2.70;2.30;;;;;;;20.64;63.41;95455.34;5031923;28;20996;-84
2023/07/05 05:45:05;;;;;;;2.85;1.80;;;;;;;20.69;63.13;95462.47;5032880;28;20628;-85
2023/07/05 05:47:32;;;;;;;3.97;1.70;;;;;;;20.79;62.70;95469.63;5032830;28;20662;-85
2023/07/05 05:50:00;;;;;;;3.83;1.70;;;;;;;20.84;62.69;95460.03;5032215;28;20637;-85
2023/07/05 05:52:26;;;;;;;2.17;1.58;;;;;;;20.96;62.69;95452.88;5032053;28;20296;-85
2023/07/05 05:54:52;;;;;;;2.10;1.70;;;;;;;21.13;62.56;95442.31;5030601;28;20612;-85
2023/07/05 05:57:19;;;;;;;2.50;1.83;;;;;;;21.26;62.38;95431.47;5027439;28;20289;-85
2023/07/05 05:59:45;;;;;;;1.95;1.83;;;;;;;21.34;62.57;95441.53;5025502;28;20666;-84
2023/07/05 06:02:12;;;;;;;2.10;1.70;;;;;;;21.53;62.15;95430.69;5031753;28;20638;-84
2023/07/05 06:04:38;;;;;;;2.53;1.58;;;;;;;21.62;61.77;95427.34;5031727;28;20209;-84
2023/07/05 06:07:06;;;;;;;3.00;1.77;;;;;;;21.65;61.47;95434.72;5031887;28;20619;-86
2023/07/05 06:09:37;;;;;;;2.92;1.60;;;;;;;21.63;62.24;95441.25;5031798;28;20344;-85
2023/07/05 06:12:04;;;;;;;2.53;1.70;;;;;;;21.62;61.83;95445.69;5031452;28;20229;-85
2023/07/05 06:14:31;;;;;;;1.70;1.60;;;;;;;21.64;61.99;95438.38;5031482;28;20586;-85
2023/07/05 06:16:57;;;;;;;1.70;1.60;;;;;;;21.52;62.95;95444.81;5031339;28;20222;-85
2023/07/05 06:19:23;;;;;;;1.90;1.80;;;;;;;21.57;63.09;95439.63;5031337;28;20247;-85
2023/07/05 06:21:50;;;;;;;1.88;1.73;;;;;;;21.62;62.88;95426.56;5031498;28;20206;-84
2023/07/05 06:24:17;;;;;;;1.92;1.73;;;;;;;21.58;63.87;95433.34;5031392;28;20706;-85
2023/07/05 06:26:44;;;;;;;1.75;1.65;;;;;;;21.45;66.00;95428.50;5031626;28;20202;-85
2023/07/05 06:29:10;;;;;;;2.17;1.88;;;;;;;21.35;66.74;95430.00;5040368;28;20198;-84
2023/07/05 06:31:37;;;;;;;3.92;1.75;;;;;;;21.29;66.98;95436.22;5051327;28;20251;-85
2023/07/05 06:34:03;;;;;;;2.33;1.85;;;;;;;21.30;67.70;95439.63;5038043;28;20855;-86
2023/07/05 06:36:29;;;;;;;2.35;1.73;;;;;;;21.38;66.91;95441.78;5029887;28;20799;-84
2023/07/05 06:38:56;;;;;;;2.17;1.80;;;;;;;21.25;68.34;95448.22;5030451;28;20206;-85
2023/07/05 06:41:23;;;;;;;2.78;2.20;;;;;;;21.28;68.44;95445.13;5031020;28;20209;-84
2023/07/05 06:43:50;;;;;;;30.52;27.52;;;;;;;21.26;68.81;95457.66;5030375;28;20233;-84
2023/07/05 06:46:16;;;;;;;11.80;10.70;;;;;;;21.32;68.00;95455.91;5029918;28;20207;-84
2023/07/05 06:48:43;;;;;;;3.55;2.63;;;;;;;21.40;67.14;95465.13;5029141;28;20605;-84
2023/07/05 06:51:09;;;;;;;2.85;1.90;;;;;;;21.40;67.12;95455.44;5029817;28;20301;-85
2023/07/05 06:53:35;;;;;;;2.22;1.92;;;;;;;21.41;67.14;95461.47;5030219;28;20707;-84
2023/07/05 06:56:02;;;;;;;1.88;1.70;;;;;;;21.46;66.96;95464.16;5030489;28;20732;-85
2023/07/05 06:58:30;;;;;;;2.47;2.00;;;;;;;21.49;66.74;95468.91;5031238;28;20210;-83
2023/07/05 07:00:57;;;;;;;2.78;2.00;;;;;;;21.56;66.88;95461.59;5031520;28;20205;-84
2023/07/05 07:03:23;;;;;;;2.55;1.85;;;;;;;21.61;66.56;95469.53;5029670;28;20256;-83
2023/07/05 07:05:52;;;;;;;1.83;1.58;;;;;;;21.53;66.98;95465.53;5030453;28;20211;-83
2023/07/05 07:08:19;;;;;;;2.13;1.92;;;;;;;21.53;67.21;95465.53;5029707;28;20201;-84
2023/07/05 07:10:45;;;;;;;2.88;2.22;;;;;;;21.53;67.28;95475.22;5028125;28;20209;-82
2023/07/05 07:13:12;;;;;;;4.32;1.60;;;;;;;21.54;66.85;95493.31;5029880;28;20225;-82
2023/07/05 07:15:39;;;;;;;2.10;1.88;;;;;;;21.58;66.59;95494.38;5031675;28;20256;-82
2023/07/05 07:18:06;;;;;;;1.90;1.73;;;;;;;21.66;66.30;95487.91;5030270;28;20597;-82
2023/07/05 07:20:33;;;;;;;1.70;1.60;;;;;;;21.69;66.33;95501.31;5033021;28;20206;-83
2023/07/05 07:23:00;;;;;;;3.22;1.80;;;;;;;21.72;65.89;95497.44;5029485;28;20723;-84
2023/07/05 07:25:26;;;;;;;3.83;1.35;;;;;;;21.61;65.08;95495.72;5040425;28;20261;-82
2023/07/05 07:27:53;;;;;;;4.07;1.80;;;;;;;21.75;64.66;95493.50;5033362;28;20195;-83
2023/07/05 07:30:19;;;;;;;1.55;1.45;;;;;;;21.84;64.70;95502.50;5030251;28;20248;-83
2023/07/05 07:32:47;;;;;;;2.47;1.80;;;;;;;21.94;64.78;95497.31;5029208;28;20889;-83
2023/07/05 07:35:14;;;;;;;2.47;1.50;;;;;;;21.95;63.57;95483.97;5030672;28;20210;-83
2023/07/05 07:37:40;;;;;;;3.38;2.00;;;;;;;22.10;63.68;95495.69;5033993;28;20225;-81
2023/07/05 07:40:08;;;;;;;2.67;1.85;;;;;;;22.12;63.65;95489.16;5028190;28;20298;-84
2023/07/05 07:42:35;;;;;;;2.72;1.90;;;;;;;22.19;63.07;95494.94;5029573;28;20225;-83
2023/07/05 07:45:01;;;;;;;2.08;1.80;;;;;;;22.10;63.11;95480.72;5030109;28;20823;-85
2023/07/05 07:47:28;;;;;;;3.42;1.85;;;;;;;22.11;63.14;95474.44;5029997;28;20194;-82
2023/07/05 07:49:55;;;;;;;2.42;1.75;;;;;;;22.20;62.68;95465.06;5030082;28;20264;-82
2023/07/05 07:52:22;;;;;;;2.30;1.80;;;;;;;22.22;62.29;95462.19;5029597;28;20241;-83
2023/07/05 07:54:48;;;;;;;2.65;1.80;;;;;;;22.29;61.98;95468.00;5028231;28;20201;-81
2023/07/05 07:57:14;;;;;;;2.30;1.80;;;;;;;22.50;61.60;95455.81;5029930;28;20264;-85
2023/07/05 07:59:41;;;;;;;1.90;1.80;;;;;;;22.45;61.02;95446.06;5029963;28;20201;-81
2023/07/05 08:02:12;;;;;;;2.15;1.95;;;;;;;22.54;59.55;95446.34;5032994;28;20222;-82
2023/07/05 08:04:40;;;;;;;2.47;1.98;;;;;;;22.75;60.69;95448.03;5033339;28;20244;-83
2023/07/05 08:07:07;;;;;;;2.03;1.90;;;;;;;22.93;59.63;95454.72;5033671;28;20201;-84
2023/07/05 08:09:34;;;;;;;2.67;2.40;;;;;;;23.18;58.50;95446.13;5032703;28;20733;-82
2023/07/05 08:12:00;;;;;;;2.90;2.22;;;;;;;23.50;58.25;95441.47;5033795;28;20226;-84
2023/07/05 08:14:28;;;;;;;2.67;2.47;;;;;;;23.74;57.14;95442.56;5034275;28;20206;-82
2023/07/05 08:16:54;;;;;;;2.50;2.30;;;;;;;23.91;56.17;95447.56;5034443;28;20272;-82
2023/07/05 08:19:21;;;;;;;3.63;2.22;;;;;;;24.00;55.87;95450.47;5035129;28;20198;-82
2023/07/05 08:21:48;;;;;;;4.85;4.45;;;;;;;24.09;55.55;95446.25;5046343;28;20243;-83
2023/07/05 08:24:16;;;;;;;3.45;2.35;;;;;;;24.19;55.12;95448.88;5054294;28;20678;-81
2023/07/05 08:26:43;;;;;;;3.90;2.00;;;;;;;24.14;55.62;95448.88;5041458;28;20729;-81
2023/07/05 08:29:09;;;;;;;5.03;2.47;;;;;;;24.06;55.10;95452.03;5054177;28;20205;-82
2023/07/05 08:31:36;;;;;;;2.47;1.90;;;;;;;23.93;54.68;95449.94;5040092;28;20218;-81
2023/07/05 08:34:02;;;;;;;1.98;1.83;;;;;;;23.93;55.04;95448.09;5039214;28;20413;-82
2023/07/05 08:36:34;;;;;;;2.45;2.17;;;;;;;23.90;54.71;95455.72;5033458;28;20228;-84
2023/07/05 08:39:02;;;;;;;4.05;2.20;;;;;;;23.80;55.16;95453.88;5031861;28;20229;-84
2023/07/05 08:41:40;;;;;;;3.53;2.08;;;;;;;23.60;54.67;95453.88;5033232;28;20586;-85
2023/07/05 08:44:17;;;;;;;2.70;1.98;;;;;;;23.45;54.59;95456.44;5033443;28;20205;-85
2023/07/05 08:46:48;;;;;;;5.22;2.15;;;;;;;23.40;55.25;95447.50;5034853;28;20198;-87
2023/07/05 08:49:21;;;;;;;6.78;6.18;;;;;;;23.43;54.54;95448.81;5033985;28;20198;-83
2023/07/05 08:51:49;;;;;;;2.53;2.15;;;;;;;23.53;54.16;95456.75;5032796;28;20237;-81
2023/07/05 08:54:16;;;;;;;2.13;1.70;;;;;;;23.73;54.36;95450.72;5031755;28;20198;-81
2023/07/05 08:56:48;;;;;;;2.15;1.90;;;;;;;23.80;53.78;95445.22;5032256;28;20268;-83
2023/07/05 08:59:23;;;;;;;2.30;2.10;;;;;;;23.84;52.23;95436.53;5032645;28;20209;-81
2023/07/05 09:01:52;;;;;;;2.10;2.00;;;;;;;23.92;51.74;95449.16;5032633;28;20198;-82
2023/07/05 09:04:22;;;;;;;2.42;1.98;;;;;;;24.19;51.85;95434.94;5033513;28;20210;-81
2023/07/05 09:06:54;;;;;;;1.92;1.83;;;;;;;23.92;50.40;95441.25;5033060;28;20570;-82
2023/07/05 09:09:33;;;;;;;2.55;1.98;;;;;;;23.88;50.98;95423.63;5033779;28;20749;-83
2023/07/05 09:12:12;;;;;;;2.72;1.83;;;;;;;23.88;50.94;95437.56;5031036;28;20687;-82
2023/07/05 09:14:56;;;;;;;2.78;1.77;;;;;;;23.96;50.86;95433.63;5032643;28;20202;-81
2023/07/05 09:17:35;;;;;;;2.47;1.83;;;;;;;23.92;49.94;95435.22;5040768;28;20222;-83
2023/07/05 09:20:13;;;;;;;2.17;1.80;;;;;;;24.26;49.94;95430.97;5032168;28;20205;-82
2023/07/05 09:22:41;;;;;;;3.25;1.88;;;;;;;24.48;49.74;95429.88;5032632;28;20218;-81
2023/07/05 09:25:13;;;;;;;4.07;1.90;;;;;;;24.63;49.75;95427.22;5032810;28;20202;-82
2023/07/05 09:27:49;;;;;;;2.10;1.92;;;;;;;24.50;49.94;95430.41;5030376;28;20206;-84
2023/07/05 09:30:24;;;;;;;2.30;2.10;;;;;;;24.19;50.38;95430.47;5028783;28;20309;-80
2023/07/05 09:32:59;;;;;;;2.65;2.20;;;;;;;23.95;49.62;95430.22;5011790;28;20304;-82
2023/07/05 09:35:30;;;;;;;2.63;2.35;;;;;;;23.99;50.25;95435.75;5013130;28;20206;-82
2023/07/05 09:38:04;;;;;;;2.95;2.03;;;;;;;24.33;50.00;95425.47;5016074;28;20658;-82
2023/07/05 09:40:36;;;;;;;2.20;2.08;;;;;;;24.58;49.16;95429.88;5032912;28;20344;-82
2023/07/05 09:43:07;;;;;;;2.40;2.20;;;;;;;24.56;49.20;95435.41;5032052;28;20313;-82
2023/07/05 09:45:34;;;;;;;2.03;1.92;;;;;;;24.83;48.97;95448.19;5032722;28;20602;-81
2023/07/05 09:48:03;;;;;;;4.15;2.25;;;;;;;24.81;49.56;95441.66;5033420;28;20194;-84
2023/07/05 09:50:30;;;;;;;2.60;2.28;;;;;;;24.88;49.13;95432.38;5032438;28;20670;-84
2023/07/05 09:53:01;;;;;;;2.88;2.20;;;;;;;24.82;49.06;95438.75;5032195;28;20230;-81
2023/07/05 09:55:27;;;;;;;4.28;2.33;;;;;;;24.83;49.65;95444.78;5031445;28;20204;-85
2023/07/05 09:57:54;;;;;;;3.08;2.50;;;;;;;25.04;50.11;95441.03;5032171;28;20641;-83
2023/07/05 10:00:25;;;;;;;2.58;2.35;;;;;;;25.18;50.04;95439.41;5031143;28;20214;-83
2023/07/05 10:02:54;;;;;;;2.80;2.60;;;;;;;25.17;49.27;95443.09;5031506;28;20303;-84
2023/07/05 10:05:26;;;;;;;3.13;2.67;;;;;;;25.29;49.03;95445.41;5031822;28;20670;-84
2023/07/05 10:07:56;;;;;;;5.90;2.58;;;;;;;25.34;48.53;95440.91;5031804;28;20952;-84
2023/07/05 10:10:26;;;;;;;3.38;2.65;;;;;;;25.59;49.41;95439.94;5031516;28;20210;-83
2023/07/05 10:13:00;;;;;;;2.67;2.47;;;;;;;25.96;49.26;95434.16;5034603;28;20218;-82
2023/07/05 10:15:28;;;;;;;3.30;2.35;;;;;;;26.05;48.33;95436.97;5040202;28;20220;-81
2023/07/05 10:17:57;;;;;;;2.60;2.40;;;;;;;26.23;48.95;95433.63;5041082;28;20218;-82
2023/07/05 10:20:27;;;;;;;2.67;2.47;;;;;;;25.75;47.82;95432.75;5031535;28;20202;-83
2023/07/05 10:23:02;;;;;;;2.78;2.58;;;;;;;25.44;49.23;95432.91;5029882;28;20849;-83
2023/07/05 10:25:33;;;;;;;3.13;2.78;;;;;;;25.19;50.25;95440.97;5031790;28;20209;-83
2023/07/05 10:28:00;;;;;;;3.85;2.90;;;;;;;25.11;50.45;95442.31;5047847;28;20198;-81
2023/07/05 10:30:29;;;;;;;4.43;2.50;;;;;;;24.97;51.24;95441.34;5050024;28;20674;-82
2023/07/05 10:33:10;;;;;;;3.65;2.50;;;;;;;24.86;51.41;95449.50;5050849;28;20255;-81
2023/07/05 10:35:46;;;;;;;2.70;2.50;;;;;;;24.49;51.63;95437.53;5051774;28;20608;-81
2023/07/05 10:38:24;;;;;;;5.10;3.00;;;;;;;24.37;51.48;95443.09;5045183;28;20222;-83
2023/07/05 10:40:51;;;;;;;3.30;3.00;;;;;;;24.22;50.81;95452.81;5030778;28;20225;-81
2023/07/05 10:43:18;;;;;;;3.33;2.63;;;;;;;24.02;51.55;95445.75;5030240;28;20610;-82
2023/07/05 10:45:46;;;;;;;3.28;2.83;;;;;;;23.89;51.86;95454.13;5031931;28;20209;-84
2023/07/05 10:48:25;;;;;;;6.00;5.40;;;;;;;23.54;53.51;95475.94;5031314;28;20207;-82
2023/07/05 10:50:52;;;;;;;4.32;3.60;;;;;;;23.32;61.09;95486.63;5030941;28;20236;-82
2023/07/05 10:53:22;;;;;;;7.40;3.92;;;;;;;23.20;63.47;95478.19;5031372;28;20229;-83
2023/07/05 10:55:54;;;;;;;3.67;3.25;;;;;;;23.02;65.16;95479.44;5030687;28;20198;-82
2023/07/05 10:58:23;;;;;;;4.88;3.80;;;;;;;22.97;66.55;95469.69;5031259;28;20252;-81
2023/07/05 11:00:57;;;;;;;3.20;2.90;;;;;;;23.00;67.95;95471.81;5031265;28;20206;-81
2023/07/05 11:03:29;;;;;;;4.68;3.97;;;;;;;23.06;70.39;95480.50;5030529;28;20279;-82
2023/07/05 11:05:58;;;;;;;7.15;3.58;;;;;;;23.18;68.97;95473.19;5030788;28;20198;-83
2023/07/05 11:08:28;;;;;;;4.10;3.17;;;;;;;23.22;70.27;95465.59;5031716;28;20210;-80
2023/07/05 11:11:00;;;;;;;3.40;3.10;;;;;;;23.29;69.65;95464.28;5041881;28;20251;-82
2023/07/05 11:13:28;;;;;;;3.97;3.35;;;;;;;23.35;70.33;95470.34;5050304;28;20214;-81
2023/07/05 11:15:56;;;;;;;3.42;3.13;;;;;;;23.50;69.40;95459.06;5051041;28;20210;-82
2023/07/05 11:18:25;;;;;;;3.78;3.35;;;;;;;23.55;69.51;95459.13;5038230;28;20249;-84
2023/07/05 11:20:54;;;;;;;3.75;3.10;;;;;;;23.58;67.53;95451.50;5035221;28;20202;-82
2023/07/05 11:23:54;;;;;;;5.18;3.20;;;;;;;23.50;70.01;95454.59;5049845;28;20412;-83
2023/07/05 11:26:33;;;;;;;5.07;3.30;;;;;;;23.40;69.76;95462.47;4984984;28;20949;-80
2023/07/05 11:29:00;;;;;;;5.10;3.50;;;;;;;23.20;69.69;95478.97;4968295;28;20207;-83
2023/07/05 11:31:58;;;;;;;4.07;3.30;;;;;;;23.03;72.82;95502.03;5000464;28;20697;-80
2023/07/05 11:34:42;;;;;;;10.02;8.32;;;;;;;22.61;73.99;95494.19;5030963;28;20228;-82
2023/07/05 11:37:41;;;;;;;8.13;4.43;;;;;;;22.42;70.46;95498.25;5030303;28;20260;-82
2023/07/05 11:41:04;;;;;;;3.72;2.55;;;;;;;22.16;69.15;95500.69;5028587;28;20285;-82
2023/07/05 11:43:40;;;;;;;2.13;1.92;;;;;;;21.68;67.12;95491.88;5029880;28;20225;-82
2023/07/05 11:46:35;;;;;;;3.47;2.30;;;;;;;21.63;65.62;95489.19;5030170;28;20667;-80
2023/07/05 11:49:15;;;;;;;3.78;2.38;;;;;;;21.69;65.87;95485.59;5010916;28;20249;-80
2023/07/05 11:51:42;;;;;;;2.97;2.10;;;;;;;21.72;67.27;95479.06;5022157;28;20206;-81